sensor_id;sensor_type;location;lat;lon;timestamp;pressure;altitude;pressure_sealevel;temperature;humidity
66273;BME280;58450;52.150;4.466;2022-07-01T00:01:41;101420.56;;;13.73;100.00
66273;BME280;58450;52.150;4.466;2022-07-01T00:04:10;101431.38;;;13.73;100.00
66273;BME280;58450;52.150;4.466;2022-07-01T00:06:38;101426.56;;;13.69;100.00
66273;BME280;58450;52.150;4.466;2022-07-01T00:09:05;101424.47;;;13.71;100.00
66273;BME280;58450;52.150;4.466;2022-07-01T00:11:34;101434.84;;;13.67;100.00
66273;BME280;58450;52.150;4.466;2022-07-01T00:14:01;101437.16;;;13.70;100.00
66273;BME280;58450;52.150;4.466;2022-07-01T00:16:29;101443.59;;;13.69;100.00
66273;BME280;58450;52.150;4.466;2022-07-01T00:18:57;101446.06;;;13.64;100.00
66273;BME280;58450;52.150;4.466;2022-07-01T00:21:24;101442.69;;;13.62;100.00
66273;BME280;58450;52.150;4.466;2022-07-01T00:23:52;101436.84;;;13.58;100.00
66273;BME280;58450;52.150;4.466;2022-07-01T00:26:19;101437.88;;;13.57;100.00
66273;BME280;58450;52.150;4.466;2022-07-01T00:28:48;101449.72;;;13.56;100.00
66273;BME280;58450;52.150;4.466;2022-07-01T00:31:16;101454.88;;;13.51;100.00
66273;BME280;58450;52.150;4.466;2022-07-01T00:33:43;101460.28;;;13.51;100.00
66273;BME280;58450;52.150;4.466;2022-07-01T00:36:11;101458.03;;;13.55;100.00
66273;BME280;58450;52.150;4.466;2022-07-01T00:38:38;101455.25;;;13.48;100.00
66273;BME280;58450;52.150;4.466;2022-07-01T00:41:06;101467.09;;;13.47;100.00
66273;BME280;58450;52.150;4.466;2022-07-01T00:43:34;101470.63;;;13.48;100.00
66273;BME280;58450;52.150;4.466;2022-07-01T00:46:05;101468.94;;;13.47;100.00
66273;BME280;58450;52.150;4.466;2022-07-01T00:48:34;101461.22;;;13.43;100.00
66273;BME280;58450;52.150;4.466;2022-07-01T00:51:03;101461.03;;;13.45;100.00
66273;BME280;58450;52.150;4.466;2022-07-01T00:53:31;101461.88;;;13.45;100.00
66273;BME280;58450;52.150;4.466;2022-07-01T00:55:59;101462.25;;;13.42;100.00
66273;BME280;58450;52.150;4.466;2022-07-01T00:58:27;101464.47;;;13.39;100.00
66273;BME280;58450;52.150;4.466;2022-07-01T01:00:56;101465.81;;;13.43;100.00
66273;BME280;58450;52.150;4.466;2022-07-01T01:03:25;101450.50;;;13.35;100.00
66273;BME280;58450;52.150;4.466;2022-07-01T01:05:54;101451.91;;;13.31;100.00
66273;BME280;58450;52.150;4.466;2022-07-01T01:08:23;101444.63;;;13.32;100.00
66273;BME280;58450;52.150;4.466;2022-07-01T01:10:52;101456.41;;;13.24;100.00
66273;BME280;58450;52.150;4.466;2022-07-01T01:13:20;101445.78;;;13.22;100.00
66273;BME280;58450;52.150;4.466;2022-07-01T01:15:47;101441.22;;;13.23;100.00
66273;BME280;58450;52.150;4.466;2022-07-01T01:18:15;101440.19;;;13.24;100.00
66273;BME280;58450;52.150;4.466;2022-07-01T01:20:44;101438.91;;;13.20;100.00
66273;BME280;58450;52.150;4.466;2022-07-01T01:23:11;101438.91;;;13.20;100.00
66273;BME280;58450;52.150;4.466;2022-07-01T01:25:39;101446.91;;;13.13;100.00
66273;BME280;58450;52.150;4.466;2022-07-01T01:28:06;101457.28;;;13.09;100.00
66273;BME280;58450;52.150;4.466;2022-07-01T01:30:34;101461.44;;;13.12;100.00
66273;BME280;58450;52.150;4.466;2022-07-01T01:33:02;101464.34;;;13.10;100.00
66273;BME280;58450;52.150;4.466;2022-07-01T01:35:30;101454.94;;;13.06;100.00
66273;BME280;58450;52.150;4.466;2022-07-01T01:37:59;101456.63;;;13.07;100.00
66273;BME280;58450;52.150;4.466;2022-07-01T01:40:26;101456.16;;;13.04;100.00
66273;BME280;58450;52.150;4.466;2022-07-01T01:42:54;101459.31;;;13.07;100.00
66273;BME280;58450;52.150;4.466;2022-07-01T01:45:21;101454.09;;;13.06;100.00
66273;BME280;58450;52.150;4.466;2022-07-01T01:47:49;101469.13;;;13.08;100.00
66273;BME280;58450;52.150;4.466;2022-07-01T01:50:17;101478.53;;;13.12;100.00
66273;BME280;58450;52.150;4.466;2022-07-01T01:52:45;101482.03;;;13.13;100.00
66273;BME280;58450;52.150;4.466;2022-07-01T01:55:14;101494.91;;;13.11;100.00
66273;BME280;58450;52.150;4.466;2022-07-01T01:57:42;101494.53;;;13.14;100.00
66273;BME280;58450;52.150;4.466;2022-07-01T02:00:11;101495.75;;;13.11;100.00
66273;BME280;58450;52.150;4.466;2022-07-01T02:02:39;101494.53;;;13.14;100.00
66273;BME280;58450;52.150;4.466;2022-07-01T02:05:09;101495.81;;;13.18;100.00
66273;BME280;58450;52.150;4.466;2022-07-01T02:07:39;101487.94;;;13.17;100.00
66273;BME280;58450;52.150;4.466;2022-07-01T02:10:07;101482.25;;;13.11;100.00
66273;BME280;58450;52.150;4.466;2022-07-01T02:12:37;101474.13;;;13.11;100.00
66273;BME280;58450;52.150;4.466;2022-07-01T02:15:06;101475.63;;;13.14;100.00
66273;BME280;58450;52.150;4.466;2022-07-01T02:17:34;101476.25;;;13.16;100.00
66273;BME280;58450;52.150;4.466;2022-07-01T02:20:02;101486.91;;;13.18;100.00
66273;BME280;58450;52.150;4.466;2022-07-01T02:22:30;101481.28;;;13.19;100.00
66273;BME280;58450;52.150;4.466;2022-07-01T02:24:57;101485.66;;;13.20;100.00
66273;BME280;58450;52.150;4.466;2022-07-01T02:27:25;101494.63;;;13.21;100.00
66273;BME280;58450;52.150;4.466;2022-07-01T02:29:54;101500.69;;;13.23;100.00
66273;BME280;58450;52.150;4.466;2022-07-01T02:32:21;101502.38;;;13.24;100.00
66273;BME280;58450;52.150;4.466;2022-07-01T02:34:49;101494.44;;;13.22;100.00
66273;BME280;58450;52.150;4.466;2022-07-01T02:37:17;101496.09;;;13.23;100.00
66273;BME280;58450;52.150;4.466;2022-07-01T02:39:44;101491.72;;;13.22;100.00
66273;BME280;58450;52.150;4.466;2022-07-01T02:42:12;101501.50;;;13.23;100.00
66273;BME280;58450;52.150;4.466;2022-07-01T02:44:54;101499.00;;;13.22;100.00
66273;BME280;58450;52.150;4.466;2022-07-01T02:47:22;101508.38;;;13.26;100.00
66273;BME280;58450;52.150;4.466;2022-07-01T02:49:50;101507.94;;;13.22;100.00
66273;BME280;58450;52.150;4.466;2022-07-01T02:52:22;101507.13;;;13.22;100.00
66273;BME280;58450;52.150;4.466;2022-07-01T02:54:49;101507.50;;;13.19;100.00
66273;BME280;58450;52.150;4.466;2022-07-01T02:57:17;101506.00;;;13.16;100.00
66273;BME280;58450;52.150;4.466;2022-07-01T02:59:44;101497.22;;;13.14;100.00
66273;BME280;58450;52.150;4.466;2022-07-01T03:02:13;101495.38;;;13.14;100.00
66273;BME280;58450;52.150;4.466;2022-07-01T03:04:41;101506.84;;;13.17;100.00
66273;BME280;58450;52.150;4.466;2022-07-01T03:07:08;101503.50;;;13.14;100.00
66273;BME280;58450;52.150;4.466;2022-07-01T03:09:36;101504.31;;;13.15;100.00
66273;BME280;58450;52.150;4.466;2022-07-01T03:12:06;101503.88;;;13.11;100.00
66273;BME280;58450;52.150;4.466;2022-07-01T03:14:48;101496.78;;;13.10;100.00
66273;BME280;58450;52.150;4.466;2022-07-01T03:17:17;101520.06;;;13.11;100.00
66273;BME280;58450;52.150;4.466;2022-07-01T03:19:44;101525.66;;;13.10;100.00
66273;BME280;58450;52.150;4.466;2022-07-01T03:22:12;101518.13;;;13.05;100.00
66273;BME280;58450;52.150;4.466;2022-07-01T03:24:40;101506.09;;;13.08;100.00
66273;BME280;58450;52.150;4.466;2022-07-01T03:27:07;101503.75;;;13.05;100.00
66273;BME280;58450;52.150;4.466;2022-07-01T03:29:35;101490.53;;;12.95;100.00
66273;BME280;58450;52.150;4.466;2022-07-01T03:32:03;101499.47;;;12.95;100.00
66273;BME280;58450;52.150;4.466;2022-07-01T03:34:33;101499.69;;;12.94;100.00
66273;BME280;58450;52.150;4.466;2022-07-01T03:37:00;101509.91;;;12.98;100.00
66273;BME280;58450;52.150;4.466;2022-07-01T03:39:27;101517.56;;;12.95;100.00
66273;BME280;58450;52.150;4.466;2022-07-01T03:41:55;101514.00;;;12.94;100.00
66273;BME280;58450;52.150;4.466;2022-07-01T03:44:22;101520.53;;;13.00;100.00
66273;BME280;58450;52.150;4.466;2022-07-01T03:46:50;101526.13;;;12.98;100.00
66273;BME280;58450;52.150;4.466;2022-07-01T03:49:17;101527.25;;;13.04;100.00
66273;BME280;58450;52.150;4.466;2022-07-01T03:51:47;101526.41;;;13.04;100.00
66273;BME280;58450;52.150;4.466;2022-07-01T03:54:14;101526.59;;;13.02;100.00
66273;BME280;58450;52.150;4.466;2022-07-01T03:56:56;101528.44;;;13.01;100.00
66273;BME280;58450;52.150;4.466;2022-07-01T03:59:25;101535.91;;;12.99;100.00
66273;BME280;58450;52.150;4.466;2022-07-01T04:01:53;101536.66;;;12.93;100.00
66273;BME280;58450;52.150;4.466;2022-07-01T04:04:20;101533.41;;;12.98;100.00
66273;BME280;58450;52.150;4.466;2022-07-01T04:06:50;101544.78;;;13.08;100.00
66273;BME280;58450;52.150;4.466;2022-07-01T04:09:19;101553.91;;;13.07;100.00
66273;BME280;58450;52.150;4.466;2022-07-01T04:11:48;101541.22;;;13.08;100.00
66273;BME280;58450;52.150;4.466;2022-07-01T04:14:16;101543.75;;;13.09;100.00
66273;BME280;58450;52.150;4.466;2022-07-01T04:16:45;101539.44;;;13.15;100.00
66273;BME280;58450;52.150;4.466;2022-07-01T04:19:13;101542.06;;;13.23;100.00
66273;BME280;58450;52.150;4.466;2022-07-01T04:21:41;101554.16;;;13.27;100.00
66273;BME280;58450;52.150;4.466;2022-07-01T04:24:27;101554.06;;;13.36;100.00
66273;BME280;58450;52.150;4.466;2022-07-01T04:26:58;101552.13;;;13.44;100.00
66273;BME280;58450;52.150;4.466;2022-07-01T04:29:27;101548.59;;;13.44;100.00
66273;BME280;58450;52.150;4.466;2022-07-01T04:31:55;101552.97;;;13.45;100.00
66273;BME280;58450;52.150;4.466;2022-07-01T04:34:23;101554.66;;;13.46;100.00
66273;BME280;58450;52.150;4.466;2022-07-01T04:36:51;101567.78;;;13.49;100.00
66273;BME280;58450;52.150;4.466;2022-07-01T04:39:18;101566.78;;;13.50;100.00
66273;BME280;58450;52.150;4.466;2022-07-01T04:41:47;101568.81;;;13.48;100.00
66273;BME280;58450;52.150;4.466;2022-07-01T04:44:30;101564.25;;;13.49;100.00
66273;BME280;58450;52.150;4.466;2022-07-01T04:46:59;101570.03;;;13.45;100.00
66273;BME280;58450;52.150;4.466;2022-07-01T04:49:28;101573.56;;;13.46;100.00
66273;BME280;58450;52.150;4.466;2022-07-01T04:51:57;101573.84;;;13.51;100.00
66273;BME280;58450;52.150;4.466;2022-07-01T04:54:25;101569.81;;;13.62;100.00
66273;BME280;58450;52.150;4.466;2022-07-01T04:56:54;101570.09;;;13.67;100.00
66273;BME280;58450;52.150;4.466;2022-07-01T04:59:22;101557.16;;;13.63;100.00
66273;BME280;58450;52.150;4.466;2022-07-01T05:01:49;101560.97;;;13.53;100.00
66273;BME280;58450;52.150;4.466;2022-07-01T05:04:17;101569.16;;;13.60;100.00
66273;BME280;58450;52.150;4.466;2022-07-01T05:06:45;101577.47;;;13.58;100.00
66273;BME280;58450;52.150;4.466;2022-07-01T05:09:13;101589.69;;;13.54;100.00
66273;BME280;58450;52.150;4.466;2022-07-01T05:11:40;101578.50;;;13.57;100.00
66273;BME280;58450;52.150;4.466;2022-07-01T05:14:09;101582.56;;;13.68;100.00
66273;BME280;58450;52.150;4.466;2022-07-01T05:16:37;101584.69;;;13.73;100.00
66273;BME280;58450;52.150;4.466;2022-07-01T05:19:04;101584.91;;;13.71;100.00
66273;BME280;58450;52.150;4.466;2022-07-01T05:21:50;101589.28;;;13.72;100.00
66273;BME280;58450;52.150;4.466;2022-07-01T05:24:25;101597.41;;;13.72;100.00
66273;BME280;58450;52.150;4.466;2022-07-01T05:26:55;101588.25;;;13.73;100.00
66273;BME280;58450;52.150;4.466;2022-07-01T05:29:25;101589.72;;;13.76;100.00
66273;BME280;58450;52.150;4.466;2022-07-01T05:31:53;101590.47;;;13.85;100.00
66273;BME280;58450;52.150;4.466;2022-07-01T05:34:21;101594.09;;;13.92;100.00
66273;BME280;58450;52.150;4.466;2022-07-01T05:36:48;101604.72;;;13.94;100.00
66273;BME280;58450;52.150;4.466;2022-07-01T05:39:16;101589.78;;;13.98;100.00
66273;BME280;58450;52.150;4.466;2022-07-01T05:41:43;101590.16;;;13.95;100.00
66273;BME280;58450;52.150;4.466;2022-07-01T05:44:11;101584.19;;;13.99;100.00
66273;BME280;58450;52.150;4.466;2022-07-01T05:46:40;101601.13;;;14.08;100.00
66273;BME280;58450;52.150;4.466;2022-07-01T05:49:07;101592.03;;;14.16;100.00
66273;BME280;58450;52.150;4.466;2022-07-01T05:51:35;101590.75;;;14.33;100.00
66273;BME280;58450;52.150;4.466;2022-07-01T05:54:02;101587.72;;;14.43;100.00
66273;BME280;58450;52.150;4.466;2022-07-01T05:56:30;101597.00;;;14.56;100.00
66273;BME280;58450;52.150;4.466;2022-07-01T05:58:58;101586.69;;;14.44;100.00
66273;BME280;58450;52.150;4.466;2022-07-01T06:01:26;101589.81;;;14.41;100.00
66273;BME280;58450;52.150;4.466;2022-07-01T06:03:54;101575.53;;;14.32;100.00
66273;BME280;58450;52.150;4.466;2022-07-01T06:06:22;101584.91;;;14.30;100.00
66273;BME280;58450;52.150;4.466;2022-07-01T06:08:49;101581.69;;;14.41;100.00
66273;BME280;58450;52.150;4.466;2022-07-01T06:11:17;101578.06;;;14.56;100.00
66273;BME280;58450;52.150;4.466;2022-07-01T06:13:44;101572.22;;;14.59;100.00
66273;BME280;58450;52.150;4.466;2022-07-01T06:16:12;101588.44;;;14.52;100.00
66273;BME280;58450;52.150;4.466;2022-07-01T06:18:39;101586.56;;;14.53;100.00
66273;BME280;58450;52.150;4.466;2022-07-01T06:21:08;101589.28;;;14.53;100.00
66273;BME280;58450;52.150;4.466;2022-07-01T06:23:35;101592.69;;;14.40;100.00
66273;BME280;58450;52.150;4.466;2022-07-01T06:26:03;101592.38;;;14.50;100.00
66273;BME280;58450;52.150;4.466;2022-07-01T06:28:31;101602.22;;;14.57;100.00
66273;BME280;58450;52.150;4.466;2022-07-01T06:30:59;101595.72;;;14.73;100.00
66273;BME280;58450;52.150;4.466;2022-07-01T06:33:26;101599.28;;;14.74;100.00
66273;BME280;58450;52.150;4.466;2022-07-01T06:35:57;101588.84;;;15.06;100.00
66273;BME280;58450;52.150;4.466;2022-07-01T06:38:26;101595.53;;;15.10;100.00
66273;BME280;58450;52.150;4.466;2022-07-01T06:40:53;101600.72;;;15.33;100.00
66273;BME280;58450;52.150;4.466;2022-07-01T06:43:38;101603.19;;;15.35;100.00
66273;BME280;58450;52.150;4.466;2022-07-01T06:46:06;101598.03;;;15.47;100.00
66273;BME280;58450;52.150;4.466;2022-07-01T06:48:34;101588.69;;;15.56;100.00
66273;BME280;58450;52.150;4.466;2022-07-01T06:51:01;101588.91;;;15.55;100.00
66273;BME280;58450;52.150;4.466;2022-07-01T06:53:30;101590.81;;;15.61;100.00
66273;BME280;58450;52.150;4.466;2022-07-01T06:55:58;101589.19;;;15.73;100.00
66273;BME280;58450;52.150;4.466;2022-07-01T06:58:25;101586.78;;;16.05;100.00
66273;BME280;58450;52.150;4.466;2022-07-01T07:00:53;101600.69;;;15.82;100.00
66273;BME280;58450;52.150;4.466;2022-07-01T07:03:21;101601.97;;;15.86;100.00
66273;BME280;58450;52.150;4.466;2022-07-01T07:05:48;101597.75;;;15.77;100.00
66273;BME280;58450;52.150;4.466;2022-07-01T07:08:16;101591.38;;;15.98;100.00
66273;BME280;58450;52.150;4.466;2022-07-01T07:10:45;101595.22;;;16.31;100.00
66273;BME280;58450;52.150;4.466;2022-07-01T07:13:12;101601.06;;;16.34;100.00
66273;BME280;58450;52.150;4.466;2022-07-01T07:15:40;101592.09;;;16.34;100.00
66273;BME280;58450;52.150;4.466;2022-07-01T07:18:07;101600.84;;;16.49;100.00
66273;BME280;58450;52.150;4.466;2022-07-01T07:20:35;101592.91;;;16.68;100.00
66273;BME280;58450;52.150;4.466;2022-07-01T07:23:03;101595.66;;;16.61;100.00
66273;BME280;58450;52.150;4.466;2022-07-01T07:25:30;101605.59;;;16.14;100.00
66273;BME280;58450;52.150;4.466;2022-07-01T07:27:59;101605.75;;;15.92;100.00
66273;BME280;58450;52.150;4.466;2022-07-01T07:30:27;101597.28;;;16.29;100.00
66273;BME280;58450;52.150;4.466;2022-07-01T07:32:54;101615.06;;;16.24;100.00
66273;BME280;58450;52.150;4.466;2022-07-01T07:35:22;101614.00;;;16.39;100.00
66273;BME280;58450;52.150;4.466;2022-07-01T07:37:50;101626.13;;;16.43;100.00
66273;BME280;58450;52.150;4.466;2022-07-01T07:40:17;101617.38;;;16.54;100.00
66273;BME280;58450;52.150;4.466;2022-07-01T07:42:46;101621.75;;;16.29;100.00
66273;BME280;58450;52.150;4.466;2022-07-01T07:45:16;101613.22;;;16.65;100.00
66273;BME280;58450;52.150;4.466;2022-07-01T07:47:44;101628.25;;;17.02;100.00
66273;BME280;58450;52.150;4.466;2022-07-01T07:50:14;101641.63;;;16.69;100.00
66273;BME280;58450;52.150;4.466;2022-07-01T07:52:42;101650.84;;;17.09;100.00
66273;BME280;58450;52.150;4.466;2022-07-01T07:55:10;101638.88;;;16.49;100.00
66273;BME280;58450;52.150;4.466;2022-07-01T07:57:39;101646.97;;;16.09;100.00
66273;BME280;58450;52.150;4.466;2022-07-01T08:00:09;101660.44;;;15.12;100.00
66273;BME280;58450;52.150;4.466;2022-07-01T08:02:40;101658.03;;;14.52;100.00
66273;BME280;58450;52.150;4.466;2022-07-01T08:05:10;101645.47;;;14.07;100.00
66273;BME280;58450;52.150;4.466;2022-07-01T08:07:39;101645.09;;;14.10;100.00
66273;BME280;58450;52.150;4.466;2022-07-01T08:10:09;101643.63;;;14.29;100.00
66273;BME280;58450;52.150;4.466;2022-07-01T08:12:40;101647.44;;;14.35;100.00
66273;BME280;58450;52.150;4.466;2022-07-01T08:15:08;101638.84;;;14.53;100.00
66273;BME280;58450;52.150;4.466;2022-07-01T08:17:37;101655.19;;;14.82;100.00
66273;BME280;58450;52.150;4.466;2022-07-01T08:20:07;101658.25;;;15.00;100.00
66273;BME280;58450;52.150;4.466;2022-07-01T08:22:35;101658.06;;;15.72;100.00
66273;BME280;58450;52.150;4.466;2022-07-01T08:25:03;101656.56;;;16.12;100.00
66273;BME280;58450;52.150;4.466;2022-07-01T08:27:31;101653.69;;;16.27;100.00
66273;BME280;58450;52.150;4.466;2022-07-01T08:29:59;101669.41;;;16.51;100.00
66273;BME280;58450;52.150;4.466;2022-07-01T08:32:26;101669.59;;;16.36;100.00
66273;BME280;58450;52.150;4.466;2022-07-01T08:34:55;101671.09;;;16.59;100.00
66273;BME280;58450;52.150;4.466;2022-07-01T08:37:23;101663.13;;;16.58;100.00
66273;BME280;58450;52.150;4.466;2022-07-01T08:39:51;101660.00;;;16.94;100.00
66273;BME280;58450;52.150;4.466;2022-07-01T08:42:18;101668.84;;;17.82;100.00
66273;BME280;58450;52.150;4.466;2022-07-01T08:44:46;101673.19;;;17.97;100.00
66273;BME280;58450;52.150;4.466;2022-07-01T08:47:13;101672.63;;;18.34;100.00
66273;BME280;58450;52.150;4.466;2022-07-01T08:49:41;101678.94;;;18.92;98.39
66273;BME280;58450;52.150;4.466;2022-07-01T08:52:10;101682.91;;;18.89;93.01
66273;BME280;58450;52.150;4.466;2022-07-01T08:54:39;101689.59;;;18.68;93.28
66273;BME280;58450;52.150;4.466;2022-07-01T08:57:07;101683.78;;;19.15;89.41
66273;BME280;58450;52.150;4.466;2022-07-01T08:59:35;101680.31;;;18.75;86.26
66273;BME280;58450;52.150;4.466;2022-07-01T09:02:04;101699.84;;;17.88;92.28
66273;BME280;58450;52.150;4.466;2022-07-01T09:04:33;101689.47;;;18.17;95.88
66273;BME280;58450;52.150;4.466;2022-07-01T09:07:04;101689.28;;;18.12;95.00
66273;BME280;58450;52.150;4.466;2022-07-01T09:09:36;101690.84;;;18.65;95.38
66273;BME280;58450;52.150;4.466;2022-07-01T09:12:08;101693.97;;;19.01;93.32
66273;BME280;58450;52.150;4.466;2022-07-01T09:14:36;101694.41;;;18.34;92.99
66273;BME280;58450;52.150;4.466;2022-07-01T09:17:06;101692.63;;;17.62;94.97
66273;BME280;58450;52.150;4.466;2022-07-01T09:19:34;101695.53;;;18.26;95.66
66273;BME280;58450;52.150;4.466;2022-07-01T09:22:04;101708.66;;;18.36;96.02
66273;BME280;58450;52.150;4.466;2022-07-01T09:24:33;101701.03;;;18.12;96.44
66273;BME280;58450;52.150;4.466;2022-07-01T09:27:04;101707.06;;;18.21;96.61
66273;BME280;58450;52.150;4.466;2022-07-01T09:29:39;101698.31;;;19.53;96.58
66273;BME280;58450;52.150;4.466;2022-07-01T09:32:11;101742.28;;;18.61;86.89
66273;BME280;58450;52.150;4.466;2022-07-01T09:34:42;101726.34;;;18.20;83.74
66273;BME280;58450;52.150;4.466;2022-07-01T09:37:12;101720.06;;;17.47;80.16
66273;BME280;58450;52.150;4.466;2022-07-01T09:39:44;101727.22;;;17.07;82.70
66273;BME280;58450;52.150;4.466;2022-07-01T09:42:14;101735.38;;;17.07;81.22
66273;BME280;58450;52.150;4.466;2022-07-01T09:44:53;101734.59;;;16.45;77.43
66273;BME280;58450;52.150;4.466;2022-07-01T09:47:22;101720.75;;;16.26;81.25
66273;BME280;58450;52.150;4.466;2022-07-01T09:49:50;101744.72;;;16.16;83.44
66273;BME280;58450;52.150;4.466;2022-07-01T09:52:19;101743.59;;;15.90;86.23
66273;BME280;58450;52.150;4.466;2022-07-01T09:54:49;101769.50;;;15.64;87.10
66273;BME280;58450;52.150;4.466;2022-07-01T09:57:20;101733.63;;;15.40;89.25
66273;BME280;58450;52.150;4.466;2022-07-01T09:59:49;101757.25;;;15.46;94.04
66273;BME280;58450;52.150;4.466;2022-07-01T10:02:18;101738.78;;;15.28;97.75
66273;BME280;58450;52.150;4.466;2022-07-01T10:04:49;101742.66;;;15.19;96.04
66273;BME280;58450;52.150;4.466;2022-07-01T10:07:31;101749.47;;;15.65;94.06
66273;BME280;58450;52.150;4.466;2022-07-01T10:10:16;101753.00;;;16.49;88.60
66273;BME280;58450;52.150;4.466;2022-07-01T10:12:57;101748.31;;;17.39;82.15
66273;BME280;58450;52.150;4.466;2022-07-01T10:15:29;101749.84;;;18.14;79.98
66273;BME280;58450;52.150;4.466;2022-07-01T10:17:58;101748.84;;;18.47;78.07
66273;BME280;58450;52.150;4.466;2022-07-01T10:20:27;101753.09;;;18.75;74.03
66273;BME280;58450;52.150;4.466;2022-07-01T10:23:02;101748.00;;;18.85;73.27
66273;BME280;58450;52.150;4.466;2022-07-01T10:25:42;101755.75;;;18.88;73.11
66273;BME280;58450;52.150;4.466;2022-07-01T10:28:20;101762.16;;;19.01;76.18
66273;BME280;58450;52.150;4.466;2022-07-01T10:30:52;101760.47;;;19.07;76.50
66273;BME280;58450;52.150;4.466;2022-07-01T10:33:34;101773.88;;;18.69;76.21
66273;BME280;58450;52.150;4.466;2022-07-01T10:36:13;101749.31;;;18.76;77.31
66273;BME280;58450;52.150;4.466;2022-07-01T10:39:08;101752.31;;;18.29;82.12
66273;BME280;58450;52.150;4.466;2022-07-01T10:41:46;101754.16;;;17.56;86.15
66273;BME280;58450;52.150;4.466;2022-07-01T10:44:25;101752.06;;;17.65;89.86
66273;BME280;58450;52.150;4.466;2022-07-01T10:46:54;101743.50;;;17.27;90.06
66273;BME280;58450;52.150;4.466;2022-07-01T10:49:59;101758.38;;;17.18;89.97
66273;BME280;58450;52.150;4.466;2022-07-01T10:52:30;101747.03;;;17.62;88.36
66273;BME280;58450;52.150;4.466;2022-07-01T10:54:59;101750.78;;;17.67;87.15
66273;BME280;58450;52.150;4.466;2022-07-01T10:57:31;101753.34;;;17.35;88.15
66273;BME280;58450;52.150;4.466;2022-07-01T11:00:28;101755.59;;;16.91;86.22
66273;BME280;58450;52.150;4.466;2022-07-01T11:03:12;101766.88;;;16.81;89.13
66273;BME280;58450;52.150;4.466;2022-07-01T11:05:42;101766.84;;;16.68;89.51
66273;BME280;58450;52.150;4.466;2022-07-01T11:08:11;101795.69;;;16.14;95.90
66273;BME280;58450;52.150;4.466;2022-07-01T11:10:40;101787.38;;;15.58;100.00
66273;BME280;58450;52.150;4.466;2022-07-01T11:13:12;101776.00;;;15.41;100.00
66273;BME280;58450;52.150;4.466;2022-07-01T11:15:44;101775.22;;;15.26;100.00
66273;BME280;58450;52.150;4.466;2022-07-01T11:18:14;101772.47;;;15.19;100.00
66273;BME280;58450;52.150;4.466;2022-07-01T11:20:48;101775.84;;;15.21;100.00
66273;BME280;58450;52.150;4.466;2022-07-01T11:23:16;101769.66;;;15.34;100.00
66273;BME280;58450;52.150;4.466;2022-07-01T11:25:46;101788.09;;;15.39;100.00
66273;BME280;58450;52.150;4.466;2022-07-01T11:28:13;101786.59;;;15.36;100.00
66273;BME280;58450;52.150;4.466;2022-07-01T11:30:42;101781.22;;;15.71;100.00
66273;BME280;58450;52.150;4.466;2022-07-01T11:33:10;101779.63;;;15.84;100.00
66273;BME280;58450;52.150;4.466;2022-07-01T11:35:38;101777.75;;;15.84;100.00
66273;BME280;58450;52.150;4.466;2022-07-01T11:38:24;101771.94;;;15.87;100.00
66273;BME280;58450;52.150;4.466;2022-07-01T11:41:18;101779.63;;;16.19;100.00
66273;BME280;58450;52.150;4.466;2022-07-01T11:43:48;101783.16;;;16.13;100.00
66273;BME280;58450;52.150;4.466;2022-07-01T11:46:18;101793.19;;;16.12;100.00
66273;BME280;58450;52.150;4.466;2022-07-01T11:48:47;101779.16;;;16.08;100.00
66273;BME280;58450;52.150;4.466;2022-07-01T11:51:18;101786.09;;;16.11;100.00
66273;BME280;58450;52.150;4.466;2022-07-01T11:53:49;101781.53;;;16.18;100.00
66273;BME280;58450;52.150;4.466;2022-07-01T11:56:28;101783.69;;;16.36;100.00
66273;BME280;58450;52.150;4.466;2022-07-01T11:58:57;101801.66;;;16.44;96.17
66273;BME280;58450;52.150;4.466;2022-07-01T12:01:30;101796.88;;;17.22;95.79
66273;BME280;58450;52.150;4.466;2022-07-01T12:04:00;101792.06;;;17.44;91.88
66273;BME280;58450;52.150;4.466;2022-07-01T12:06:30;101784.75;;;17.24;93.49
66273;BME280;58450;52.150;4.466;2022-07-01T12:08:58;101784.94;;;17.03;95.74
66273;BME280;58450;52.150;4.466;2022-07-01T12:11:28;101791.16;;;16.90;98.53
66273;BME280;58450;52.150;4.466;2022-07-01T12:13:56;101792.19;;;16.95;99.01
66273;BME280;58450;52.150;4.466;2022-07-01T12:16:24;101780.56;;;17.42;94.37
66273;BME280;58450;52.150;4.466;2022-07-01T12:18:55;101802.31;;;17.55;87.79
66273;BME280;58450;52.150;4.466;2022-07-01T12:21:27;101786.75;;;17.90;83.99
66273;BME280;58450;52.150;4.466;2022-07-01T12:24:04;101797.88;;;17.81;88.66
66273;BME280;58450;52.150;4.466;2022-07-01T12:26:32;101789.09;;;17.72;80.01
66273;BME280;58450;52.150;4.466;2022-07-01T12:29:00;101798.13;;;17.60;80.01
66273;BME280;58450;52.150;4.466;2022-07-01T12:31:27;101787.66;;;17.63;78.52
66273;BME280;58450;52.150;4.466;2022-07-01T12:33:56;101789.31;;;17.78;80.23
66273;BME280;58450;52.150;4.466;2022-07-01T12:36:24;101789.56;;;17.63;79.06
66273;BME280;58450;52.150;4.466;2022-07-01T12:39:03;101791.00;;;17.25;84.53
66273;BME280;58450;52.150;4.466;2022-07-01T12:41:32;101797.06;;;17.07;87.64
66273;BME280;58450;52.150;4.466;2022-07-01T12:44:05;101803.53;;;17.06;90.04
66273;BME280;58450;52.150;4.466;2022-07-01T12:46:33;101799.72;;;16.93;90.72
66273;BME280;58450;52.150;4.466;2022-07-01T12:49:02;101806.84;;;16.94;92.94
66273;BME280;58450;52.150;4.466;2022-07-01T12:51:31;101805.88;;;17.36;91.46
66273;BME280;58450;52.150;4.466;2022-07-01T12:53:59;101800.44;;;17.56;86.55
66273;BME280;58450;52.150;4.466;2022-07-01T12:56:28;101800.63;;;17.48;87.79